Salty, Texas
Current Conditions -  °F | °C
As of 4:55 PM on Monday 24 Nov 2014 (Local Time) from KT35 Reporting Station
Clear Clear  
Wind Chill: 59°   Ceiling: Unl
Heat Index: 59°   Visibility: 10mi
Dew Point: 31°   Wind: 6mph
Humidity: 35%   Direction: 20°NNE
Pressure: 30.06"   Gusts: NA
Location:  30.6499°N, 96.9973°W
Report Text: KT35 242255Z AUTO 02005KT 10SM CLR 15/M01 A3006 RMK AO2 T01501006
Loading
Personal Weather Stations






























Interactive Weather Map New forecast layout! Learn more

10-Day Weather Forecast

Advertisements
Track Severe Weather on mobile